Latest Weather Observations for King Island Airport

IDT60801

Issued at 4:21 pm EDT Wednesday 19 December 2018 (issued every 10 minutes, with the page automatically refreshed every 10 minutes)

About weather observations | Map of weather stations | Latest weather observations for TAS | Other Formats
Station Details ID: 098017 Name: KING ISLAND AIRPORT Lat: -39.88 Lon: 143.88 Height: 37.0 m
Data from the previous 72 hours. | See also: Recent months at King Island Airport
Date/Time
EDT
Temp
°C
App
Temp
°C
Dew
Point
°C
Rel
Hum
%
Delta-T
°C
Wind Press
QNH
hPa
Press
MSL
hPa
Rain since
9am
mm
Dir  Spd
km/h
Gust
km/h
Spd
kts
Gust
kts
19/04:00pm 17.2 13.1 14.8 86 1.4 E 30 39 16 21 1012.0 1011.9 0.0
19/03:30pm 17.3 12.2 14.8 85 1.4 E 35 44 19 24 1012.0 1011.9 0.0
19/03:00pm 17.5 13.1 15.1 86 1.4 E 32 43 17 23 1012.2 1012.1 0.0
19/02:30pm 17.7 13.3 15.1 85 1.5 E 32 39 17 21 1012.6 1012.5 0.0
19/02:11pm 18.1 14.1 15.2 83 1.7 E 30 39 16 21 1012.8 1012.7 0.0
19/02:00pm 18.0 13.7 15.3 84 1.6 E 32 43 17 23 1012.9 1012.8 0.0
19/01:30pm 18.0 13.4 14.5 80 2.0 ENE 32 43 17 23 1013.1 1013.0 0.0
19/01:00pm 18.8 14.1 14.9 78 2.3 ENE 33 44 18 24 1013.2 1013.1 0.0
19/12:30pm 18.6 13.2 15.1 80 2.0 ENE 37 50 20 27 1013.2 1013.1 0.0
19/12:00pm 17.8 12.6 14.5 81 1.9 E 35 43 19 23 1013.9 1013.8 0.0
19/11:30am 17.1 12.8 14.4 84 1.5 ENE 30 41 16 22 1014.3 1014.2 0.0
19/11:00am 17.0 12.1 14.3 84 1.5 ENE 33 43 18 23 1014.1 1014.0 0.0
19/10:30am 16.9 11.7 14.4 85 1.4 ENE 35 48 19 26 1014.2 1014.1 0.0
19/10:17am 17.0 12.7 14.5 85 1.4 ENE 30 48 16 26 1014.2 1014.1 0.0
19/10:00am 17.3 13.2 14.9 86 1.4 ENE 30 44 16 24 1014.2 1014.1 0.0
19/09:30am 16.9 12.2 14.4 85 1.4 ENE 32 41 17 22 1014.4 1014.3 0.0
19/09:00am 16.6 12.5 14.8 89 1.0 ENE 30 39 16 21 1014.3 1014.2 0.0
19/08:30am 16.6 12.8 14.8 89 1.0 ENE 28 43 15 23 1014.6 1014.5 0.0
19/08:09am 16.8 12.8 15.3 91 0.9 ENE 30 48 16 26 1014.3 1014.2 0.0
19/08:00am 16.4 12.7 15.1 92 0.8 ENE 28 44 15 24 1014.3 1014.2 0.0
19/07:30am 16.3 12.7 15.2 93 0.6 ENE 28 35 15 19 1014.4 1014.3 0.0
19/07:00am 16.2 13.3 15.2 94 0.6 ENE 24 32 13 17 1014.4 1014.3 0.0
19/06:30am 16.1 13.4 15.5 96 0.3 ENE 24 33 13 18 1014.0 1013.9 0.0
19/06:00am 16.0 14.0 15.4 96 0.3 ENE 20 32 11 17 1014.3 1014.2 0.0
19/05:30am 16.0 13.6 15.5 97 0.3 ENE 22 33 12 18 1013.9 1013.8 0.0
19/05:00am 16.0 14.0 15.5 97 0.3 ENE 20 30 11 16 1014.1 1014.0 0.0
19/04:30am 16.0 14.3 15.7 98 0.2 ENE 19 26 10 14 1014.1 1014.0 0.0
19/04:00am 16.0 15.2 16.0 100 0.0 ENE 15 22 8 12 1014.1 1014.0 0.0
19/03:30am 15.6 15.0 15.6 100 0.0 ENE 13 17 7 9 1014.4 1014.3 0.0
19/03:25am 15.5 14.8 15.5 100 0.0 ENE 13 19 7 10 1014.4 1014.3 0.0
19/03:00am 14.2 13.4 14.0 99 0.1 E 11 11 6 6 1014.8 1014.7 0.0
19/02:30am 14.3 13.5 14.0 98 0.2 ENE 11 13 6 7 1015.0 1014.9 0.0
19/02:29am 14.3 13.5 14.0 98 0.2 ENE 11 13 6 7 1015.0 1014.9 0.0
19/02:02am 14.5 14.1 14.2 98 0.2 ESE 9 11 5 6 1015.4 1015.3 0.0
19/02:00am 14.5 14.1 14.2 98 0.2 ESE 9 11 5 6 1015.4 1015.3 0.0
19/01:30am 14.4 13.9 13.8 96 0.3 E 9 11 5 6 1015.6 1015.5 0.0
19/01:00am 14.9 14.1 14.1 95 0.5 ENE 11 13 6 7 1015.8 1015.7 0.0
19/12:30am 15.4 14.3 14.4 94 0.6 NE 13 17 7 9 1016.0 1015.9 0.0
19/12:08am 15.3 14.3 14.7 96 0.3 NE 13 19 7 10 1016.2 1016.1 0.0
19/12:00am 15.3 13.0 14.7 96 0.3 ENE 20 30 11 16 1016.3 1016.2 0.0
 
Date/Time
EDT
Temp
°C
App
Temp
°C
Dew
Point
°C
Rel
Hum
%
Delta-T
°C
Wind Press
QNH
hPa
Press
MSL
hPa
Rain since
9am
mm
Dir  Spd
km/h
Gust
km/h
Spd
kts
Gust
kts
18/11:32pm 15.9 15.7 15.7 99 0.1 NE 11 26 6 14 1016.3 1016.2 0.0
18/11:30pm 16.0 16.2 15.8 99 0.1 NE 9 15 5 8 1016.3 1016.2 0.0
18/11:00pm 16.0 17.9 15.8 99 0.1 CALM 0 0 0 0 1016.6 1016.5 0.0
18/10:30pm 15.8 17.6 15.6 99 0.1 CALM 0 0 0 0 1016.4 1016.3 0.0
18/10:26pm 15.8 17.6 15.6 99 0.1 CALM 0 0 0 0 1016.3 1016.2 0.0
18/10:00pm 15.7 16.4 15.7 100 0.0 SW 6 9 3 5 1016.3 1016.2 0.0
18/09:30pm 15.5 16.0 15.5 100 0.0 SSW 7 9 4 5 1016.2 1016.1 0.0
18/09:00pm 15.5 15.6 15.5 100 0.0 S 9 13 5 7 1016.1 1016.0 0.0
18/08:30pm 15.5 14.8 15.5 100 0.0 S 13 20 7 11 1016.1 1016.0 0.0
18/08:09pm 15.4 14.7 15.4 100 0.0 S 13 19 7 10 1016.3 1016.2 0.0
18/08:00pm 15.4 14.6 15.2 99 0.1 S 13 19 7 10 1016.4 1016.3 0.0
18/07:50pm 15.6 14.5 15.4 99 0.1 S 15 20 8 11 1016.7 1016.6 0.0
18/07:30pm 15.7 14.2 15.2 97 0.3 S 17 22 9 12 1016.7 1016.6 0.0
18/07:29pm 15.7 14.2 15.2 97 0.3 S 17 22 9 12 1016.7 1016.6 0.0
18/07:12pm 16.0 15.7 15.4 96 0.3 S 11 19 6 10 1016.6 1016.5 0.0
18/07:00pm 16.3 16.0 15.5 95 0.5 S 11 17 6 9 1016.4 1016.3 0.0
18/06:55pm 16.3 16.0 15.5 95 0.5 S 11 17 6 9 1016.3 1016.2 0.0
18/06:54pm 16.4 16.2 15.6 95 0.5 S 11 17 6 9 1016.3 1016.2 0.0
18/06:37pm 16.6 15.6 15.6 94 0.6 S 15 20 8 11 1016.2 1016.1 0.0
18/06:32pm 16.4 15.3 15.3 93 0.6 SSE 15 20 8 11 1016.1 1016.0 0.0
18/06:30pm 16.6 15.5 15.3 92 0.8 SSE 15 20 8 11 1016.1 1016.0 0.0
18/06:00pm 16.7 15.6 15.4 92 0.8 S 15 24 8 13 1016.2 1016.1 0.0
18/05:30pm 17.1 16.5 15.6 91 0.9 S 13 19 7 10 1016.0 1015.9 0.0
18/05:00pm 17.7 16.0 15.7 88 1.2 SSE 19 26 10 14 1015.9 1015.8 0.0
18/04:30pm 17.9 16.4 15.3 85 1.5 SSE 17 26 9 14 1016.0 1015.9 0.0
18/04:00pm 17.6 15.5 14.7 83 1.7 SSE 19 26 10 14 1016.1 1016.0 0.0
18/03:56pm 18.0 16.1 15.1 83 1.7 SSE 19 26 10 14 1016.1 1016.0 0.0
18/03:30pm 18.8 17.5 14.7 77 2.4 SE 15 20 8 11 1016.1 1016.0 0.0
18/03:00pm 18.7 16.8 14.2 75 2.6 SSE 17 26 9 14 1016.2 1016.1 0.0
18/02:30pm 19.1 17.4 14.6 75 2.6 SSE 17 24 9 13 1016.4 1016.3 0.0
18/02:00pm 19.1 17.3 15.4 79 2.2 S 19 28 10 15 1016.6 1016.5 0.0
18/01:30pm 18.7 15.1 14.2 75 2.6 SSW 26 33 14 18 1016.7 1016.6 0.0
18/01:00pm 19.0 14.9 14.9 77 2.4 SSW 30 35 16 19 1016.6 1016.5 0.0
18/12:30pm 17.8 13.7 13.7 77 2.3 SSW 28 37 15 20 1016.9 1016.8 0.0
18/12:00pm 17.8 14.1 13.9 78 2.2 SSW 26 35 14 19 1017.0 1016.9 0.0
18/11:55am 17.6 14.2 13.7 78 2.2 SSW 24 35 13 19 1017.2 1017.1 0.0
18/11:30am 16.9 13.2 13.8 82 1.8 S 26 35 14 19 1017.2 1017.1 0.0
18/11:00am 16.2 11.7 12.7 80 1.9 SSW 28 39 15 21 1017.4 1017.3 0.0
18/10:30am 16.1 12.2 13.4 84 1.5 SSW 26 37 14 20 1017.1 1017.0 0.0
18/10:00am 16.3 14.0 14.1 87 1.2 S 19 30 10 16 1017.0 1016.9 0.0
18/09:30am 15.4 12.9 13.6 89 1.0 S 19 28 10 15 1017.1 1017.0 0.0
18/09:00am 16.1 13.7 13.9 87 1.2 S 19 28 10 15 1017.2 1017.1 0.2
18/08:30am 15.1 12.8 14.0 93 0.6 S 19 26 10 14 1017.0 1016.9 0.2
18/08:23am 15.0 12.3 13.5 91 0.8 S 20 33 11 18 1017.1 1017.0 0.2
18/08:11am 15.3 13.2 13.7 90 0.9 S 17 22 9 12 1016.8 1016.7 0.2
18/08:00am 14.9 12.2 13.6 92 0.7 S 20 30 11 16 1016.8 1016.7 0.2
18/07:35am 14.8 13.1 13.7 93 0.6 SSW 15 22 8 12 1016.6 1016.5 0.2
18/07:30am 14.7 13.1 13.9 95 0.4 SSW 15 22 8 12 1016.6 1016.5 0.2
18/07:00am 13.9 12.9 13.4 97 0.3 S 11 15 6 8 1015.9 1015.8 0.2
18/06:41am 13.9 12.5 13.4 97 0.3 S 13 19 7 10 1016.0 1015.9 0.2
18/06:30am 13.8 12.4 13.3 97 0.3 S 13 19 7 10 1015.8 1015.7 0.2
18/06:19am 13.8 12.4 13.3 97 0.3 S 13 17 7 9 1015.5 1015.4 0.2
18/06:03am 14.0 12.5 13.2 95 0.4 SSW 13 17 7 9 1015.8 1015.7 0.2
18/06:00am 13.9 12.4 13.1 95 0.4 SSW 13 17 7 9 1015.9 1015.8 0.2
18/05:30am 14.0 12.5 13.1 94 0.5 S 13 19 7 10 1015.4 1015.3 0.2
18/05:25am 14.1 12.6 13.0 93 0.6 S 13 20 7 11 1015.5 1015.4 0.2
18/05:00am 14.0 12.4 12.7 92 0.7 S 13 20 7 11 1015.3 1015.2 0.2
18/04:30am 14.1 12.1 12.7 91 0.8 S 15 20 8 11 1014.8 1014.7 0.2
18/04:00am 13.9 12.2 12.6 92 0.7 S 13 22 7 12 1014.9 1014.8 0.2
18/03:56am 13.9 12.2 12.6 92 0.7 S 13 19 7 10 1014.9 1014.8 0.2
18/03:30am 14.1 13.0 13.1 94 0.6 S 11 17 6 9 1014.7 1014.6 0.2
18/03:00am 13.8 12.6 12.7 93 0.6 S 11 17 6 9 1014.8 1014.7 0.2
18/02:30am 13.7 12.6 13.1 96 0.3 S 11 17 6 9 1014.9 1014.8 0.2
18/02:08am 13.8 12.3 13.0 95 0.4 S 13 19 7 10 1015.2 1015.1 0.2
18/02:00am 13.8 12.7 13.0 95 0.4 S 11 15 6 8 1015.2 1015.1 0.2
18/01:52am 13.8 12.3 13.2 96 0.3 S 13 20 7 11 1015.2 1015.1 0.2
18/01:30am 14.1 12.5 12.8 92 0.7 S 13 20 7 11 1015.5 1015.4 0.2
18/01:00am 14.0 12.4 12.9 93 0.6 S 13 19 7 10 1015.5 1015.4 0.2
18/12:47am 14.1 12.6 13.1 94 0.6 S 13 20 7 11 1015.5 1015.4 0.2
18/12:44am 14.0 12.5 13.1 94 0.5 S 13 17 7 9 1015.5 1015.4 0.2
18/12:30am 14.0 12.5 13.1 94 0.5 S 13 19 7 10 1015.7 1015.6 0.2
18/12:00am 14.2 12.8 13.4 95 0.4 S 13 20 7 11 1015.6 1015.5 0.2
 
Date/Time
EDT
Temp
°C
App
Temp
°C
Dew
Point
°C
Rel
Hum
%
Delta-T
°C
Wind Press
QNH
hPa
Press
MSL
hPa
Rain since
9am
mm
Dir  Spd
km/h
Gust
km/h
Spd
kts
Gust
kts
17/11:30pm 14.1 12.7 13.5 96 0.3 S 13 20 7 11 1015.6 1015.5 0.2
17/11:01pm 14.2 12.0 13.2 94 0.6 S 17 28 9 15 1015.6 1015.5 0.2
17/11:00pm 14.2 12.4 13.2 94 0.6 S 15 26 8 14 1015.6 1015.5 0.2
17/10:58pm 14.1 11.8 13.1 94 0.6 S 17 22 9 12 1015.6 1015.5 0.2
17/10:32pm 14.3 11.7 13.3 94 0.6 SSW 19 32 10 17 1015.8 1015.7 0.2
17/10:31pm 14.3 11.7 13.3 94 0.6 SSW 19 32 10 17 1015.8 1015.7 0.2
17/10:30pm 14.2 11.6 13.2 94 0.6 SSW 19 32 10 17 1015.8 1015.7 0.2
17/10:18pm 14.2 12.4 13.4 95 0.4 S 15 22 8 12 1015.7 1015.6 0.2
17/10:01pm 13.8 12.0 13.2 96 0.3 S 15 24 8 13 1015.4 1015.3 0.2
17/10:00pm 13.8 12.0 13.2 96 0.3 S 15 24 8 13 1015.4 1015.3 0.2
17/09:47pm 14.0 11.2 13.1 94 0.5 SSW 20 33 11 18 1015.5 1015.4 0.2
17/09:42pm 14.1 11.8 13.1 94 0.6 SSW 17 28 9 15 1015.5 1015.4 0.2
17/09:30pm 14.0 10.4 12.9 93 0.6 SSW 24 37 13 20 1015.4 1015.3 0.2
17/09:23pm 14.1 10.4 12.8 92 0.7 SSW 24 37 13 20 1015.4 1015.3 0.2
17/09:00pm 13.9 10.9 12.5 91 0.8 SSW 20 28 11 15 1015.6 1015.5 0.2
17/08:41pm 13.8 10.2 13.0 95 0.4 SSW 24 35 13 19 1015.7 1015.6 0.2
17/08:30pm 13.9 10.3 13.1 95 0.4 SSW 24 33 13 18 1015.7 1015.6 0.2
17/08:22pm 14.0 10.1 13.2 95 0.4 SSW 26 33 14 18 1015.6 1015.5 0.2
17/08:17pm 14.0 10.1 13.2 95 0.4 SSW 26 33 14 18 1015.5 1015.4 0.2
17/08:00pm 14.4 10.4 13.1 92 0.7 SSW 26 35 14 19 1015.5 1015.4 0.2
17/07:58pm 14.6 10.6 13.1 91 0.8 SSW 26 35 14 19 1015.4 1015.3 0.2
17/07:56pm 14.7 10.7 12.9 89 1.0 SSW 26 35 14 19 1015.3 1015.2 0.2
17/07:30pm 14.7 10.8 13.4 92 0.7 SSW 26 33 14 18 1015.1 1015.0 0.2
17/07:00pm 15.1 10.8 13.1 88 1.1 SSW 28 35 15 19 1014.8 1014.7 0.2
17/06:30pm 15.1 10.7 12.8 86 1.3 SSW 28 35 15 19 1014.5 1014.4 0.2
17/06:00pm 15.6 10.9 13.1 85 1.4 SSW 30 39 16 21 1014.1 1014.0 0.2
17/05:30pm 16.2 12.1 13.7 85 1.4 SSW 28 37 15 20 1013.8 1013.7 0.2
17/05:00pm 16.1 11.1 13.4 84 1.5 SSW 32 37 17 20 1013.9 1013.8 0.2
17/04:30pm 16.0 10.5 13.5 85 1.4 SSW 35 44 19 24 1013.7 1013.6 0.2
17/04:00pm 16.5 11.4 13.2 81 1.8 SSW 32 41 17 22 1013.5 1013.4 0.2
17/03:30pm 16.4 11.3 13.1 81 1.8 SSW 32 39 17 21 1013.5 1013.4 0.2
17/03:00pm 17.2 12.1 13.7 80 2.0 SSW 33 43 18 23 1013.3 1013.2 0.0
17/02:30pm 16.9 11.9 13.4 80 2.0 SSW 32 46 17 25 1012.9 1012.8 0.0
17/02:00pm 16.9 11.8 13.8 82 1.8 SSW 33 44 18 24 1012.6 1012.5 0.0
17/01:30pm 17.0 12.0 13.5 80 2.0 SSW 32 41 17 22 1012.4 1012.3 0.0
17/01:00pm 16.9 12.0 14.4 85 1.4 SSW 33 43 18 23 1012.7 1012.6 0.0
17/12:30pm 17.0 12.0 13.9 82 1.8 SSW 33 44 18 24 1012.2 1012.1 0.0
17/12:00pm 16.8 12.3 13.9 83 1.6 SSW 30 46 16 25 1012.4 1012.3 0.0
17/11:58am 17.2 12.8 14.1 82 1.8 SSW 30 48 16 26 1012.3 1012.2 0.0
17/11:30am 15.8 10.9 13.8 88 1.1 SSW 32 46 17 25 1012.1 1012.0 0.0
17/11:13am 15.9 10.6 14.3 90 0.9 SSW 35 48 19 26 1012.3 1012.2 0.0
17/11:00am 15.5 10.7 14.7 95 0.5 SSW 33 44 18 24 1012.3 1012.2 0.0
17/10:56am 15.6 10.9 14.8 95 0.5 SSW 33 44 18 24 1012.3 1012.2 0.0
17/10:55am 15.5 10.7 14.5 94 0.6 SSW 33 44 18 24 1012.2 1012.1 0.0
17/10:36am 15.6 10.5 14.8 95 0.5 SSW 35 50 19 27 1012.3 1012.2 0.0
17/10:30am 15.4 10.5 14.4 94 0.6 SSW 33 43 18 23 1012.3 1012.2 0.0
17/10:00am 15.5 11.0 15.0 97 0.3 SSW 32 43 17 23 1011.8 1011.7 0.0
17/09:56am 15.3 11.2 14.8 97 0.3 SSW 30 41 16 22 1011.7 1011.6 0.0
17/09:55am 15.4 11.3 14.9 97 0.3 SSW 30 41 16 22 1011.7 1011.6 0.0
17/09:30am 15.3 11.2 14.8 97 0.3 SSW 30 41 16 22 1011.7 1011.6 0.0
17/09:24am 15.1 11.2 14.5 96 0.3 SSW 28 41 15 22 1011.7 1011.6 0.0
17/09:19am 15.3 11.4 14.5 95 0.5 SSW 28 39 15 21 1011.4 1011.3 0.0
17/09:01am 15.2 11.4 14.7 97 0.3 SSW 28 37 15 20 1011.2 1011.1 0.0
17/09:00am 15.3 11.5 14.8 97 0.3 SSW 28 37 15 20 1011.2 1011.1 0.4
17/08:30am 15.5 11.8 15.0 97 0.3 SSW 28 37 15 20 1010.5 1010.4 0.4
17/08:00am 15.3 12.1 15.3 100 0.0 SSW 26 35 14 19 1010.2 1010.1 0.4
17/07:53am 14.9 10.8 14.9 100 0.0 SSW 30 37 16 20 1010.1 1010.0 0.4
17/07:30am 14.9 11.2 14.9 100 0.0 SSW 28 35 15 19 1009.7 1009.7 0.4
17/07:18am 14.8 11.4 14.8 100 0.0 SSW 26 35 14 19 1009.5 1009.5 0.4
17/07:13am 14.8 11.8 14.8 100 0.0 SSW 24 33 13 18 1009.5 1009.5 0.4
17/07:00am 14.8 11.8 14.8 100 0.0 SW 24 30 13 16 1009.4 1009.4 0.4
17/06:35am 14.8 12.6 14.8 100 0.0 SW 20 30 11 16 1009.1 1009.1 0.2
17/06:30am 14.7 12.4 14.7 100 0.0 SW 20 30 11 16 1009.0 1009.0 0.2
17/06:00am 14.8 13.1 14.8 100 0.0 WSW 17 22 9 12 1008.6 1008.6 0.2
17/05:44am 14.8 13.1 14.8 100 0.0 WSW 17 24 9 13 1008.4 1008.4 0.2
17/05:30am 14.9 13.3 14.9 100 0.0 WSW 17 22 9 12 1008.4 1008.4 0.2
17/05:22am 15.1 14.3 15.1 100 0.0 WSW 13 19 7 10 1008.2 1008.2 0.2
17/05:00am 15.0 14.9 15.0 100 0.0 SW 9 13 5 7 1007.8 1007.8 0.2
17/04:35am 14.8 13.9 14.8 100 0.0 SW 13 15 7 8 1007.7 1007.7 0.2
17/04:30am 14.8 13.9 14.8 100 0.0 SW 13 19 7 10 1007.7 1007.7 0.2
17/04:00am 14.8 13.5 14.8 100 0.0 SW 15 20 8 11 1007.4 1007.4 0.2
17/03:30am 15.0 13.3 14.8 99 0.1 WSW 17 24 9 13 1007.4 1007.4 0.2
17/03:25am 15.0 13.7 14.8 99 0.1 WSW 15 20 8 11 1007.5 1007.5 0.2
17/03:03am 15.1 13.5 14.9 99 0.1 WSW 17 22 9 12 1007.3 1007.3 0.2
17/03:00am 15.2 14.0 15.0 99 0.1 WSW 15 20 8 11 1007.2 1007.2 0.2
17/02:45am 15.5 13.6 15.2 98 0.2 WSW 19 26 10 14 1007.1 1007.1 0.2
17/02:30am 15.6 13.7 15.3 98 0.2 WSW 19 26 10 14 1007.0 1007.0 0.2
17/02:00am 15.8 14.8 15.5 98 0.2 WSW 15 19 8 10 1007.2 1007.2 0.2
17/01:43am 15.8 14.8 15.5 98 0.2 W 15 19 8 10 1007.3 1007.3 0.2
17/01:30am 15.8 14.8 15.5 98 0.2 WNW 15 17 8 9 1007.3 1007.3 0.2
17/01:00am 15.8 15.8 15.3 97 0.3 W 9 11 5 6 1007.6 1007.6 0.2
17/12:30am 15.9 14.5 15.6 98 0.2 WSW 17 22 9 12 1007.9 1007.9 0.2
17/12:00am 16.0 15.4 15.7 98 0.2 WSW 13 17 7 9 1007.8 1007.8 0.2
 
Date/Time
EDT
Temp
°C
App
Temp
°C
Dew
Point
°C
Rel
Hum
%
Delta-T
°C
Wind Press
QNH
hPa
Press
MSL
hPa
Rain since
9am
mm
Dir  Spd
km/h
Gust
km/h
Spd
kts
Gust
kts
16/11:30pm 15.9 15.3 15.6 98 0.2 WSW 13 20 7 11 1007.9 1007.9 0.2
16/11:00pm 16.0 15.0 15.7 98 0.2 WSW 15 19 8 10 1007.7 1007.7 0.2
16/10:30pm 16.1 15.2 15.8 98 0.2 WSW 15 19 8 10 1007.4 1007.4 0.2
16/10:16pm 16.0 15.3 15.5 97 0.3 W 13 19 7 10 1007.2 1007.2 0.2
16/10:00pm 15.8 15.4 15.3 97 0.3 W 11 15 6 8 1006.7 1006.7 0.2
16/09:30pm 15.6 15.9 15.1 97 0.3 W 7 9 4 5 1006.3 1006.3 0.2
16/09:00pm 15.5 17.1 14.9 96 0.3 CALM 0 0 0 0 1006.1 1006.1 0.2
16/08:30pm 15.6 15.9 14.6 94 0.6 W 6 9 3 5 1006.2 1006.2 0.2
16/08:09pm 15.8 15.2 14.7 93 0.6 WSW 11 17 6 9 1006.3 1006.3 0.2
16/08:00pm 15.9 14.9 14.6 92 0.7 W 13 17 7 9 1006.2 1006.2 0.2
16/07:30pm 16.2 14.5 14.7 91 0.9 W 17 24 9 13 1006.2 1006.2 0.2
16/07:00pm 16.5 14.5 14.9 90 0.9 WSW 19 26 10 14 1006.0 1006.0 0.2
16/06:30pm 16.8 14.8 15.0 89 1.0 WSW 19 28 10 15 1005.9 1005.9 0.2
16/06:00pm 17.1 14.9 14.9 87 1.3 W 20 30 11 16 1005.4 1005.4 0.2
16/05:56pm 17.2 14.7 15.2 88 1.2 W 22 30 12 16 1005.4 1005.4 0.2
16/05:30pm 19.5 18.7 16.2 81 2.0 WNW 15 19 8 10 1005.2 1005.2 0.2
16/05:00pm 18.8 17.5 14.9 78 2.3 WNW 15 20 8 11 1005.3 1005.3 0.2
16/04:30pm 20.2 19.4 16.0 77 2.5 W 15 20 8 11 1005.2 1005.2 0.2

Other Formats:

Comma delimited format used in spreadsheet applications
http://www.bom.gov.au/fwo/IDT60801/IDT60801.94850.axf

JavaScript Object Notation format (JSON) in row-major order
http://www.bom.gov.au/fwo/IDT60801/IDT60801.94850.json